SondeTracker

Meteorological Radiosondes Database

Operations

Sounding was ended - last measurement: 2022-12-07 00:45:54z

MAP
About Radiosonde

Number: T3230819

Launch Site: Confins (BR)

Type: RS41

AUX: NO

Frequency: 404.000 MHz

Max Speed: 91 km/h at 13317 m

Average Speed: 59.50 km/h

Max Altitude: 20700 m

Average Ascent Speed: 6.61 m/s

Average Descent Speed: 6.92 m/s

Status: UNKNOWN

Status Changes
Launch Site Type AUX Frequency Status Finder Landing Point Description Changes made by
APRS Statistics

Received Frames: 48

First Frame [UTC]: 2022-12-07 00:02:14z

Last Frame [UTC]: 2022-12-07 00:45:54z

Receivers: PY4CCL-11

Flight Time: 00:43:40 h

Distance From First Measurement: 30.46 km

Nearest City: Sete Lagoas (BR) [24.02 km]

Nearest Hunter: PU4LSB [54.05 km]

Ground Altitude: 726 m

Distance from QTH: 0.00 km

APRS Data
Receiver Number Date/Time [UTC] φ λ Course [°] Speed [km/h] Altitude [m] Description
PY4CCL-11T32308192022-12-07 00:45:54-19.3261-44.06971359915Clb=-6.1m/s p=292.9hPa t=-32.8C h=21.6% 404.000MHz Type=RS41-SGP rdzTTGOsonde
PY4CCL-11T32308192022-12-07 00:45:12-19.3302-44.069994410176Clb=-6.0m/s p=282.1hPa t=-34.9C h=13.4% 404.000MHz Type=RS41-SGP TxOff=8h5m rdzTTGOsonde
PY4CCL-11T32308192022-12-07 00:44:50-19.3326-44.0703124410314Clb=-6.0m/s p=276.6hPa t=-36.0C h=20.5% 404.000MHz Type=RS41-SGP TxOff=8h6m rdzTTGOsonde
PY4CCL-11T32308192022-12-07 00:44:30-19.3348-44.0708114310437Clb=-6.1m/s p=271.8hPa t=-37.2C h=47.9% 404.000MHz Type=RS41-SGP TxOff=8h6m rdzTTGOsonde
PY4CCL-11T32308192022-12-07 00:44:10-19.3369-44.0712124410557Clb=-6.6m/s p=267.1hPa t=-38.4C h=46.4% 404.000MHz Type=RS41-SGP TxOff=8h6m rdzTTGOsonde
PY4CCL-11T32308192022-12-07 00:43:28-19.3416-44.0722124810838Clb=-6.7m/s p=256.7hPa t=-40.8C h=71.5% 404.000MHz Type=RS41-SGP TxOff=8h7m rdzTTGOsonde
PY4CCL-11T32308192022-12-07 00:43:08-19.3438-44.0727114610963Clb=-6.5m/s p=251.8hPa t=-41.9C h=73.6% 404.000MHz Type=RS41-SGP TxOff=8h8m rdzTTGOsonde
PY4CCL-11T32308192022-12-07 00:42:06-19.3507-44.0747275411378Clb=-6.7m/s p=236.8hPa t=-45.6C h=67.9% 404.000MHz Type=RS41-SGP rdzTTGOsonde
PY4CCL-11T32308192022-12-07 00:41:44-19.3532-44.0759195611518Clb=-5.8m/s p=231.8hPa t=-46.8C h=68.8% 404.000MHz Type=RS41-SGP rdzTTGOsonde
PY4CCL-11T32308192022-12-07 00:41:02-19.3587-44.079286511759Clb=-4.5m/s p=223.6hPa t=-48.8C h=67.3% 404.000MHz Type=RS41-SGP TxOff=8h9m rdzTTGOsonde
PY4CCL-11T32308192022-12-07 00:40:00-19.3685-44.0842287612144Clb=-6.8m/s p=211.0hPa t=-52.3C h=64.6% 404.000MHz Type=RS41-SGP rdzTTGOsonde
PY4CCL-11T32308192022-12-07 00:39:34-19.3732-44.0868318912377Clb=-10.4m/s p=203.6hPa t=-54.3C h=67.5% 404.000MHz Type=RS41-SGP TxOff=8h11m rdzTTGOsonde
PY4CCL-11T32308192022-12-07 00:38:24-19.3858-44.0927108012998Clb=-6.9m/s p=184.4hPa t=-59.6C h=57.9% 404.000MHz Type=RS41-SGP TxOff=8h12m rdzTTGOsonde
PY4CCL-11T32308192022-12-07 00:38:04-19.3898-44.094188713127Clb=-2.2m/s p=180.6hPa t=-60.8C h=64.0% 404.000MHz Type=RS41-SGP rdzTTGOsonde
PY4CCL-11T32308192022-12-07 00:37:22-19.3985-44.0965179113317Clb=-3.4m/s p=175.3hPa t=-62.1C h=66.7% 404.000MHz Type=RS41-SGP rdzTTGOsonde
PY4CCL-11T32308192022-12-07 00:36:40-19.4075-44.0991169113505Clb=-4.3m/s p=170.1hPa t=-63.7C h=64.7% 404.000MHz Type=RS41-SGP TxOff=8h13m rdzTTGOsonde
PY4CCL-11T32308192022-12-07 00:33:32-19.4418-44.1044104614990Clb=-9.5m/s p=133.1hPa t=-70.4C h=16.3% 404.000MHz Type=RS41-SGP rdzTTGOsonde
PY4CCL-11T32308192022-12-07 00:30:44-19.4599-44.09563134416093Clb=-6.3m/s p=110.5hPa t=-75.0C h=18.2% 404.000MHz Type=RS41-SGP TxOff=8h19m rdzTTGOsonde
PY4CCL-11T32308192022-12-07 00:30:14-19.4618-44.09283083916282Clb=-6.6m/s p=106.9hPa t=-75.9C h=18.3% 404.000MHz Type=RS41-SGP rdzTTGOsonde
PY4CCL-11T32308192022-12-07 00:27:00-19.4731-44.06732895217632Clb=-7.3m/s p=84.7hPa t=-77.8C h=14.7% 404.000MHz Type=RS41-SGP rdzTTGOsonde
PY4CCL-11T32308192022-12-07 00:26:36-19.4739-44.06422915217813Clb=-7.6m/s p=82.1hPa t=-76.9C h=13.3% 404.000MHz Type=RS41-SGP rdzTTGOsonde
PY4CCL-11T32308192022-12-07 00:25:00-19.4755-44.05182685418617Clb=-9.6m/s p=71.5hPa t=-73.8C h=8.9% 404.000MHz Type=RS41-SGP TxOff=8h25m rdzTTGOsonde
PY4CCL-11T32308192022-12-07 00:23:32-19.4769-44.03872796719164Clb=-5.7m/s p=65.2hPa t=-73.9C h=7.3% 404.000MHz Type=RS41-SGP TxOff=8h27m rdzTTGOsonde
PY4CCL-11T32308192022-12-07 00:22:28-19.4773-44.02882685719566Clb=-6.7m/s p=61.0hPa t=-73.3C h=5.8% 404.000MHz Type=RS41-SGP TxOff=8h28m rdzTTGOsonde
PY4CCL-11T32308192022-12-07 00:22:08-19.4771-44.02562655619715Clb=-8.9m/s p=59.5hPa t=-71.7C h=4.9% 404.000MHz Type=RS41-SGP TxOff=8h28m rdzTTGOsonde
PY4CCL-11T32308192022-12-07 00:21:26-19.4769-44.01952835920033Clb=-9.3m/s p=56.3hPa t=-68.5C h=3.8% 404.000MHz Type=RS41-SGP rdzTTGOsonde
PY4CCL-11T32308192022-12-07 00:21:06-19.4773-44.01642846320187Clb=-6.8m/s p=54.9hPa t=-68.1C h=3.8% 404.000MHz Type=RS41-SGP rdzTTGOsonde
PY4CCL-11T32308192022-12-07 00:20:16-19.4796-44.00792788120559Clb=-9.0m/s p=51.6hPa t=-66.4C h=3.6% 404.000MHz Type=RS41-SGP rdzTTGOsonde
PY4CCL-11T32308192022-12-07 00:19:56-19.48-44.00412697420700Clb=-7.4m/s p=50.4hPa t=-65.4C h=3.7% 404.000MHz Type=RS41-SGP rdzTTGOsonde
PY4CCL-11T32308192022-12-07 00:18:50-19.482-43.9922876720440Clb=5.1m/s p=52.6hPa t=-67.5C h=5.1% 404.000MHz Type=RS41-SGP rdzTTGOsonde
PY4CCL-11T32308192022-12-07 00:18:22-19.4834-43.98742897820251Clb=7.9m/s p=54.2hPa t=-68.1C h=5.9% 404.000MHz Type=RS41-SGP rdzTTGOsonde
PY4CCL-11T32308192022-12-07 00:16:34-19.4836-43.97132817219587Clb=4.2m/s p=60.6hPa t=-73.6C h=10.6% 404.000MHz Type=RS41-SGP rdzTTGOsonde
PY4CCL-11T32308192022-12-07 00:16:10-19.4839-43.96822884619443Clb=7.0m/s p=62.1hPa t=-74.1C h=11.9% 404.000MHz Type=RS41-SGP rdzTTGOsonde
PY4CCL-11T32308192022-12-07 00:15:08-19.4846-43.95862926319053Clb=7.0m/s p=66.3hPa t=-73.4C h=12.7% 404.000MHz Type=RS41-SGP rdzTTGOsonde
PY4CCL-11T32308192022-12-07 00:14:48-19.4853-43.95562826718929Clb=6.4m/s p=67.7hPa t=-73.1C h=12.5% 404.000MHz Type=RS41-SGP rdzTTGOsonde
PY4CCL-11T32308192022-12-07 00:13:06-19.4857-43.94272794818325Clb=5.0m/s p=75.1hPa t=-75.2C h=17.6% 404.000MHz Type=RS41-SGP rdzTTGOsonde
PY4CCL-11T32308192022-12-07 00:12:44-19.4855-43.942594318192Clb=6.7m/s p=76.9hPa t=-75.3C h=18.2% 404.000MHz Type=RS41-SGP rdzTTGOsonde
PY4CCL-11T32308192022-12-07 00:11:12-19.4878-43.92832905217642Clb=5.4m/s p=84.5hPa t=-77.3C h=21.1% 404.000MHz Type=RS41-SGP rdzTTGOsonde
PY4CCL-11T32308192022-12-07 00:10:48-19.4897-43.92382975917406Clb=5.3m/s p=86.8hPa t=-77.3C h=20.7% 404.000MHz Type=RS41-SGP rdzTTGOsonde
PY4CCL-11T32308192022-12-07 00:09:24-19.4941-43.91363065016933Clb=5.2m/s p=95.5hPa t=-77.2C h=19.4% 404.000MHz Type=RS41-SGP rdzTTGOsonde
PY4CCL-11T32308192022-12-07 00:09:04-19.4954-43.9112915416783Clb=7.9m/s p=98.0hPa t=-76.5C h=18.0% 404.000MHz Type=RS41-SGP rdzTTGOsonde
PY4CCL-11T32308192022-12-07 00:08:22-19.4981-43.90522995916513Clb=3.4m/s p=102.7hPa t=-75.5C h=17.5% 404.000MHz Type=RS41-SGP rdzTTGOsonde
PY4CCL-11T32308192022-12-07 00:07:40-19.5016-43.90093283716260Clb=6.9m/s p=107.2hPa t=-75.7C h=17.9% 404.000MHz Type=RS41-SGP rdzTTGOsonde
PY4CCL-11T32308192022-12-07 00:07:20-19.5029-43.89913155216136Clb=5.3m/s p=109.5hPa t=-74.6C h=17.7% 404.000MHz Type=RS41-SGP rdzTTGOsonde
PY4CCL-11T32308192022-12-07 00:06:18-19.5176-43.889775615119Clb=6.6m/s p=117.9hPa 404.000MHz Type=RS41-SGP rdzTTGOsonde
PY4CCL-11T32308192022-12-07 00:03:46-19.5255-43.89013535014530Clb=10.2m/s 404.000MHz Type=RS41 rdzTTGOsonde
PY4CCL-11T32308192022-12-07 00:02:36-19.5383-43.8908108313883Clb=8.5m/s 404.000MHz Type=RS41 rdzTTGOsonde
PY4CCL-11T32308192022-12-07 00:02:14-19.543-43.8922208313681Clb=10.3m/s 404.000MHz Type=RS41 rdzTTGOsonde